X  Zatvori METAR podaci zračne luke     KSWO Stillwater Regional Airport
Temperatura
79°F Temperatura
68°F Točka rosišta
70% Vlaga



Vjetar
5 MPS
8 KM/S
2 M/S
4 Čvorovi



30°
SSI
Trenutna situacija

Vedro Vedro
Tlak zraka 1018.92 (hPa) - 30.09 (inHg)
Vidljivost 10 (milje) - 16.1 (km)
Zračna luka
Kôd zračne luke KSWO

Lokacija: Stillwater Regional Airport
Udaljenost: 4 (mi)

Metar:
KSWO 110353Z AUTO 03004KT 10SM CLR 26/20 A3009 RMK AO2 SLP174 T02560200

Vrijeme: 08-10-2022 10:53 pm CDT